Time;durP1;ratioP1;P1;durP2;ratioP2;P2;SDS_P1;SDS_P2;PMS_P1;PMS_P2;Temp;Humidity;BMP_temperature;BMP_pressure;BME280_temperature;BME280_humidity;BME280_pressure;Samples;Min_cycle;Max_cycle;Signal;HPM_P1;HPM_P2
2023/09/05 00:02:09;;;;;;;;;;;20.20;67.70;;;;;;5093630;28;19934;-69
2023/09/05 00:04:35;;;;;;;;;;;20.20;66.90;;;;;;5099871;28;19916;-67
2023/09/05 00:07:02;;;;;;;;;;;20.30;66.50;;;;;;5113568;28;19907;-68
2023/09/05 00:09:28;;;;;;;;;;;20.40;66.20;;;;;;5106779;28;19920;-68
2023/09/05 00:11:55;;;;;;;;;;;20.30;65.90;;;;;;5093358;28;19908;-67
2023/09/05 00:14:22;;;;;;;;;;;20.40;65.50;;;;;;5098226;28;20376;-72
2023/09/05 00:16:48;;;;;;;;;;;20.40;65.40;;;;;;5112726;28;20318;-67
2023/09/05 00:19:15;;;;;;;;;;;20.50;64.40;;;;;;5106882;28;20406;-67
2023/09/05 00:21:42;;;;;;;;;;;20.50;62.00;;;;;;5092887;28;19912;-66
2023/09/05 00:24:30;;;;;;;;;;;20.60;62.70;;;;;;5093255;28;20458;-70
2023/09/05 00:27:01;;;;;;;;;;;20.70;61.80;;;;;;5093213;28;19908;-67
2023/09/05 00:29:28;;;;;;;;;;;20.70;62.10;;;;;;5100752;28;19924;-68
2023/09/05 00:31:58;;;;;;;;;;;20.90;59.80;;;;;;5105288;28;19911;-67
2023/09/05 00:34:26;;;;;;;;;;;20.90;59.70;;;;;;5113119;28;20379;-67
2023/09/05 00:36:52;;;;;;;;;;;21.00;60.00;;;;;;5111076;28;20490;-69
2023/09/05 00:39:19;;;;;;;;;;;21.00;58.50;;;;;;5110109;28;19912;-68
2023/09/05 00:41:46;;;;;;;;;;;21.00;57.70;;;;;;5112721;28;19914;-69
2023/09/05 00:44:14;;;;;;;;;;;21.10;58.00;;;;;;5112981;28;19943;-70
2023/09/05 00:46:45;;;;;;;;;;;21.10;57.70;;;;;;5112252;28;19920;-69
2023/09/05 00:49:15;;;;;;;;;;;21.20;58.40;;;;;;5109460;28;19920;-69
2023/09/05 00:51:50;;;;;;;;;;;21.30;58.30;;;;;;5112664;28;20272;-69
2023/09/05 00:54:17;;;;;;;;;;;21.30;57.50;;;;;;5111459;28;19911;-68
2023/09/05 00:56:45;;;;;;;;;;;21.30;58.20;;;;;;5112646;28;19998;-69
2023/09/05 00:59:12;;;;;;;;;;;21.40;58.60;;;;;;5111323;28;19950;-68
2023/09/05 01:01:38;;;;;;;;;;;21.40;58.90;;;;;;5112278;28;20006;-66
2023/09/05 01:04:05;;;;;;;;;;;21.40;57.40;;;;;;5112302;28;19920;-67
2023/09/05 01:06:37;;;;;;;;;;;21.50;58.50;;;;;;5112757;28;19996;-67
2023/09/05 01:09:13;;;;;;;;;;;21.60;57.70;;;;;;5107582;28;20019;-67
2023/09/05 01:11:41;;;;;;;;;;;21.70;57.60;;;;;;5110336;28;19919;-68
2023/09/05 01:14:08;;;;;;;;;;;21.80;58.00;;;;;;5104799;28;20604;-67
2023/09/05 01:16:35;;;;;;;;;;;21.90;57.90;;;;;;5097253;28;19919;-68
2023/09/05 01:19:01;;;;;;;;;;;22.00;57.10;;;;;;5109432;28;19919;-67
2023/09/05 01:21:39;;;;;;;;;;;22.00;57.40;;;;;;5091787;28;19912;-67
2023/09/05 01:24:12;;;;;;;;;;;22.10;56.90;;;;;;5092618;28;20410;-68
2023/09/05 01:26:39;;;;;;;;;;;22.20;57.70;;;;;;5097585;28;20003;-67
2023/09/05 01:29:06;;;;;;;;;;;22.40;56.40;;;;;;5111591;28;20269;-66
2023/09/05 01:31:33;;;;;;;;;;;22.60;56.20;;;;;;5112300;28;19916;-68
2023/09/05 01:34:00;;;;;;;;;;;22.60;56.00;;;;;;5112347;28;19920;-69
2023/09/05 01:36:26;;;;;;;;;;;22.70;56.20;;;;;;5111966;28;19915;-67
2023/09/05 01:39:00;;;;;;;;;;;22.80;55.70;;;;;;5110696;28;19908;-70
2023/09/05 01:41:26;;;;;;;;;;;23.10;56.20;;;;;;5108775;28;20372;-68
2023/09/05 01:43:53;;;;;;;;;;;23.10;54.50;;;;;;5099530;28;20364;-66
2023/09/05 01:46:20;;;;;;;;;;;23.20;53.60;;;;;;5111880;28;19916;-69
2023/09/05 01:48:47;;;;;;;;;;;23.30;53.40;;;;;;5112151;28;19923;-71
2023/09/05 01:51:13;;;;;;;;;;;23.40;52.10;;;;;;5111204;28;19951;-70
2023/09/05 01:53:40;;;;;;;;;;;23.50;51.90;;;;;;5107047;28;19950;-68
2023/09/05 01:56:07;;;;;;;;;;;23.60;52.20;;;;;;5096132;28;20050;-68
2023/09/05 01:58:33;;;;;;;;;;;23.90;51.80;;;;;;5095336;28;20401;-68
2023/09/05 02:01:03;;;;;;;;;;;24.00;51.60;;;;;;5096206;28;19912;-68
2023/09/05 02:03:31;;;;;;;;;;;24.30;51.70;;;;;;5112584;28;19915;-67
2023/09/05 02:05:57;;;;;;;;;;;24.40;49.50;;;;;;5113293;28;20307;-70
2023/09/05 02:08:24;;;;;;;;;;;24.60;49.90;;;;;;5108988;28;19972;-67
2023/09/05 02:10:50;;;;;;;;;;;24.60;49.70;;;;;;5097818;28;20020;-67
2023/09/05 02:13:17;;;;;;;;;;;24.70;48.10;;;;;;5110577;28;20367;-66
2023/09/05 02:15:44;;;;;;;;;;;24.70;49.40;;;;;;5115647;28;19911;-67
2023/09/05 02:18:11;;;;;;;;;;;25.00;48.90;;;;;;5115432;28;19908;-67
2023/09/05 02:20:38;;;;;;;;;;;25.10;50.30;;;;;;5113506;28;19916;-65
2023/09/05 02:23:05;;;;;;;;;;;25.20;48.20;;;;;;5114343;28;20280;-67
2023/09/05 02:25:31;;;;;;;;;;;25.30;48.40;;;;;;5115395;28;20006;-70
2023/09/05 02:27:58;;;;;;;;;;;25.30;47.80;;;;;;5115302;28;20348;-66
2023/09/05 02:30:26;;;;;;;;;;;25.30;46.90;;;;;;5115175;28;20370;-68
2023/09/05 02:32:53;;;;;;;;;;;25.20;46.80;;;;;;5113790;28;19957;-68
2023/09/05 02:35:22;;;;;;;;;;;25.40;47.70;;;;;;5114788;28;19915;-65
2023/09/05 02:37:51;;;;;;;;;;;25.80;47.40;;;;;;5115211;28;19908;-68
2023/09/05 02:40:18;;;;;;;;;;;26.00;46.80;;;;;;5101875;28;19908;-67
2023/09/05 02:42:45;;;;;;;;;;;26.60;47.20;;;;;;5104910;28;19912;-67
2023/09/05 02:45:12;;;;;;;;;;;27.30;46.00;;;;;;5114856;28;20414;-69
2023/09/05 02:47:40;;;;;;;;;;;28.00;45.80;;;;;;5114568;28;19963;-68
2023/09/05 02:50:07;;;;;;;;;;;28.90;45.10;;;;;;5114373;28;19912;-68
2023/09/05 02:52:33;;;;;;;;;;;30.00;44.00;;;;;;5101059;28;19916;-67
2023/09/05 02:55:03;;;;;;;;;;;30.90;45.20;;;;;;5113020;28;19907;-67
2023/09/05 02:57:29;;;;;;;;;;;32.00;42.90;;;;;;5114890;28;20064;-70
2023/09/05 02:59:56;;;;;;;;;;;32.50;43.00;;;;;;5114309;28;19986;-70
2023/09/05 03:02:23;;;;;;;;;;;33.30;41.60;;;;;;5103103;28;19911;-69
2023/09/05 03:04:54;;;;;;;;;;;33.60;40.90;;;;;;5112298;28;19969;-71
2023/09/05 03:07:21;;;;;;;;;;;34.20;40.80;;;;;;5112603;28;19908;-71
2023/09/05 03:09:51;;;;;;;;;;;34.60;40.90;;;;;;5105622;28;19924;-69
2023/09/05 03:12:18;;;;;;;;;;;35.20;40.30;;;;;;5105103;28;19939;-69
2023/09/05 03:14:45;;;;;;;;;;;35.60;39.40;;;;;;5098136;28;19912;-69
2023/09/05 03:17:12;;;;;;;;;;;35.40;38.60;;;;;;5106348;28;19914;-71
2023/09/05 03:19:39;;;;;;;;;;;34.80;39.40;;;;;;5107076;28;19951;-69
2023/09/05 03:22:09;;;;;;;;;;;35.30;38.40;;;;;;5108991;28;19916;-71
2023/09/05 03:24:35;;;;;;;;;;;35.60;40.00;;;;;;5110352;28;19919;-75
2023/09/05 03:27:03;;;;;;;;;;;35.90;39.00;;;;;;5114534;28;19908;-71
2023/09/05 03:29:29;;;;;;;;;;;36.30;38.80;;;;;;5108597;28;19920;-74
2023/09/05 03:31:56;;;;;;;;;;;36.80;37.90;;;;;;5098659;28;20365;-70
2023/09/05 03:34:23;;;;;;;;;;;36.80;37.70;;;;;;5105112;28;20364;-69
2023/09/05 03:36:49;;;;;;;;;;;37.40;38.20;;;;;;5113530;28;19914;-72
2023/09/05 03:39:16;;;;;;;;;;;37.50;38.00;;;;;;5114177;28;20288;-70
2023/09/05 03:41:43;;;;;;;;;;;37.10;37.20;;;;;;5096119;28;19998;-71
2023/09/05 03:44:09;;;;;;;;;;;37.00;37.90;;;;;;5103378;28;20002;-72
2023/09/05 03:46:36;;;;;;;;;;;37.80;37.20;;;;;;5112691;28;19916;-72
2023/09/05 03:49:03;;;;;;;;;;;37.80;36.70;;;;;;5111169;28;19916;-73
2023/09/05 03:51:29;;;;;;;;;;;37.40;37.60;;;;;;5093891;28;19908;-71
2023/09/05 03:53:58;;;;;;;;;;;37.40;37.00;;;;;;5094751;28;19955;-68
2023/09/05 03:56:25;;;;;;;;;;;37.80;37.10;;;;;;5104251;28;19912;-69
2023/09/05 03:58:52;;;;;;;;;;;38.60;37.30;;;;;;5113032;28;19930;-71
2023/09/05 04:01:18;;;;;;;;;;;39.10;37.70;;;;;;5109566;28;19912;-71
2023/09/05 04:03:50;;;;;;;;;;;39.40;38.10;;;;;;5112834;28;19984;-69
2023/09/05 04:06:17;;;;;;;;;;;40.30;37.10;;;;;;5112970;28;19914;-73
2023/09/05 04:08:44;;;;;;;;;;;40.40;36.80;;;;;;5112924;28;19971;-66
2023/09/05 04:11:11;;;;;;;;;;;40.60;36.20;;;;;;5113135;28;19908;-68
2023/09/05 04:13:38;;;;;;;;;;;40.10;36.10;;;;;;5108031;28;19912;-71
2023/09/05 04:16:05;;;;;;;;;;;39.70;36.70;;;;;;5107343;28;19907;-68
2023/09/05 04:18:32;;;;;;;;;;;39.70;36.20;;;;;;5107178;28;19907;-68
2023/09/05 04:20:59;;;;;;;;;;;39.40;36.90;;;;;;5094677;28;19919;-66
2023/09/05 04:23:26;;;;;;;;;;;39.60;36.00;;;;;;5107371;28;19920;-67
2023/09/05 04:25:57;;;;;;;;;;;39.60;36.50;;;;;;5100163;28;19912;-71
2023/09/05 04:28:25;;;;;;;;;;;39.80;36.60;;;;;;5112909;28;20368;-71
2023/09/05 04:30:55;;;;;;;;;;;39.50;36.10;;;;;;5097067;28;19908;-71
2023/09/05 04:33:32;;;;;;;;;;;39.60;36.70;;;;;;5112207;28;20402;-68
2023/09/05 04:35:58;;;;;;;;;;;39.80;35.80;;;;;;5100092;28;20015;-70
2023/09/05 04:38:25;;;;;;;;;;;39.90;35.40;;;;;;5092539;28;20272;-69
2023/09/05 04:40:52;;;;;;;;;;;40.10;35.70;;;;;;5110256;28;19908;-71
2023/09/05 04:43:18;;;;;;;;;;;40.10;34.90;;;;;;5096570;28;19919;-72
2023/09/05 04:45:55;;;;;;;;;;;39.90;35.20;;;;;;5112262;28;19911;-71
2023/09/05 04:48:22;;;;;;;;;;;39.90;35.70;;;;;;5106683;28;19926;-71
2023/09/05 04:50:49;;;;;;;;;;;39.70;36.20;;;;;;5074275;28;19919;-71
2023/09/05 04:53:15;;;;;;;;;;;39.30;35.40;;;;;;5092624;28;19912;-71
2023/09/05 04:55:42;;;;;;;;;;;39.50;35.10;;;;;;5092821;28;19912;-71
2023/09/05 04:58:09;;;;;;;;;;;38.70;35.70;;;;;;5101340;28;20356;-72
2023/09/05 05:00:36;;;;;;;;;;;38.80;35.20;;;;;;5101798;28;19920;-70
2023/09/05 05:03:02;;;;;;;;;;;39.20;35.00;;;;;;5096145;28;19928;-72
2023/09/05 05:05:29;;;;;;;;;;;39.50;35.70;;;;;;5097468;28;19908;-73
2023/09/05 05:07:56;;;;;;;;;;;39.40;35.60;;;;;;5110485;28;19912;-70
2023/09/05 05:10:22;;;;;;;;;;;39.40;34.80;;;;;;5105290;28;19920;-72
2023/09/05 05:12:49;;;;;;;;;;;38.70;35.00;;;;;;5099532;28;20357;-71
2023/09/05 05:15:15;;;;;;;;;;;38.70;35.10;;;;;;5101778;28;19912;-73
2023/09/05 05:17:42;;;;;;;;;;;38.70;35.10;;;;;;5091261;28;19908;-72
2023/09/05 05:20:09;;;;;;;;;;;38.50;34.90;;;;;;5099088;28;19908;-71
2023/09/05 05:22:36;;;;;;;;;;;39.00;35.60;;;;;;5093814;28;20384;-71
2023/09/05 05:25:02;;;;;;;;;;;39.50;35.30;;;;;;5099203;28;19991;-72
2023/09/05 05:27:29;;;;;;;;;;;40.10;35.80;;;;;;5089951;28;19912;-72
2023/09/05 05:29:56;;;;;;;;;;;39.80;34.30;;;;;;5099935;28;19912;-71
2023/09/05 05:32:22;;;;;;;;;;;39.90;35.70;;;;;;5107938;28;19916;-69
2023/09/05 05:34:49;;;;;;;;;;;39.90;34.90;;;;;;5110022;28;19908;-69
2023/09/05 05:37:16;;;;;;;;;;;39.90;35.10;;;;;;5102121;28;21412;-69
2023/09/05 05:39:43;;;;;;;;;;;40.00;35.50;;;;;;5097122;28;19915;-70
2023/09/05 05:42:10;;;;;;;;;;;40.40;36.10;;;;;;5104588;28;19915;-70
2023/09/05 05:44:38;;;;;;;;;;;40.60;34.80;;;;;;5099375;28;19912;-72
2023/09/05 05:47:04;;;;;;;;;;;40.40;36.00;;;;;;5098351;28;20000;-72
2023/09/05 05:49:31;;;;;;;;;;;40.10;34.80;;;;;;5092864;28;19920;-70
2023/09/05 05:51:58;;;;;;;;;;;39.50;34.50;;;;;;5096342;28;19912;-71
2023/09/05 05:54:28;;;;;;;;;;;39.20;34.40;;;;;;5090373;28;19918;-71
2023/09/05 05:56:55;;;;;;;;;;;38.60;34.80;;;;;;5107267;28;19912;-67
2023/09/05 05:59:24;;;;;;;;;;;38.30;34.60;;;;;;5091620;28;19912;-69
2023/09/05 06:01:52;;;;;;;;;;;37.90;34.60;;;;;;5096300;28;19923;-69
2023/09/05 06:04:23;;;;;;;;;;;38.30;35.70;;;;;;5110550;28;20280;-72
2023/09/05 06:06:49;;;;;;;;;;;37.90;35.00;;;;;;5109355;28;19932;-70
2023/09/05 06:09:20;;;;;;;;;;;37.60;34.30;;;;;;5098031;28;19931;-69
2023/09/05 06:11:47;;;;;;;;;;;37.90;35.70;;;;;;5102845;28;20628;-69
2023/09/05 06:14:16;;;;;;;;;;;37.90;35.80;;;;;;5096416;28;19926;-69
2023/09/05 06:16:48;;;;;;;;;;;37.60;34.60;;;;;;5101113;28;19919;-71
2023/09/05 06:19:14;;;;;;;;;;;37.10;34.90;;;;;;5103238;28;19951;-71
2023/09/05 06:21:46;;;;;;;;;;;36.40;35.00;;;;;;5106140;28;19926;-68
2023/09/05 06:24:13;;;;;;;;;;;36.10;34.40;;;;;;5103133;28;19916;-72
2023/09/05 06:26:41;;;;;;;;;;;35.20;34.70;;;;;;5098732;28;19977;-68
2023/09/05 06:29:08;;;;;;;;;;;34.50;34.50;;;;;;5092165;28;20269;-70
2023/09/05 06:31:35;;;;;;;;;;;34.10;35.50;;;;;;5100714;28;19916;-69
2023/09/05 06:34:02;;;;;;;;;;;34.30;35.20;;;;;;5100995;28;19962;-69
2023/09/05 06:36:28;;;;;;;;;;;33.70;35.50;;;;;;5094946;28;19908;-69
2023/09/05 06:38:55;;;;;;;;;;;33.30;35.20;;;;;;5092586;28;20350;-69
2023/09/05 06:41:22;;;;;;;;;;;32.80;35.00;;;;;;5108659;28;19969;-70
2023/09/05 06:43:49;;;;;;;;;;;32.10;35.20;;;;;;5104292;28;19939;-68
2023/09/05 06:46:15;;;;;;;;;;;32.00;35.80;;;;;;5102976;28;19955;-69
2023/09/05 06:48:42;;;;;;;;;;;31.90;35.80;;;;;;5095872;27;20070;-71
2023/09/05 06:51:08;;;;;;;;;;;30.90;36.00;;;;;;5100526;28;19915;-70
2023/09/05 06:53:35;;;;;;;;;;;30.60;36.60;;;;;;5107809;27;19911;-72
2023/09/05 06:56:02;;;;;;;;;;;30.20;36.60;;;;;;5102353;28;19908;-68
2023/09/05 06:58:28;;;;;;;;;;;29.50;36.60;;;;;;5100431;28;19912;-70
2023/09/05 07:00:55;;;;;;;;;;;28.60;36.80;;;;;;5105248;28;19919;-71
2023/09/05 07:03:22;;;;;;;;;;;27.50;37.20;;;;;;5109872;28;20054;-67
2023/09/05 07:05:49;;;;;;;;;;;26.70;38.60;;;;;;5113408;28;19912;-70
2023/09/05 07:08:16;;;;;;;;;;;25.90;38.20;;;;;;5101286;28;19930;-68
2023/09/05 07:10:43;;;;;;;;;;;25.30;38.40;;;;;;5105311;28;19908;-68
2023/09/05 07:13:10;;;;;;;;;;;24.70;38.90;;;;;;5105636;28;20538;-69
2023/09/05 07:15:37;;;;;;;;;;;24.40;39.20;;;;;;5107033;28;19912;-70
2023/09/05 07:18:04;;;;;;;;;;;24.20;40.20;;;;;;5108598;28;19940;-71
2023/09/05 07:20:31;;;;;;;;;;;23.90;40.70;;;;;;5107295;28;19919;-69
2023/09/05 07:22:58;;;;;;;;;;;23.60;40.50;;;;;;5101558;28;19959;-67
2023/09/05 07:25:24;;;;;;;;;;;23.40;40.60;;;;;;5097152;28;19919;-72
2023/09/05 07:27:51;;;;;;;;;;;23.20;40.50;;;;;;5105375;27;19920;-68
2023/09/05 07:30:18;;;;;;;;;;;23.10;41.90;;;;;;5103857;28;20384;-69
2023/09/05 07:32:44;;;;;;;;;;;23.00;41.20;;;;;;5106902;28;19912;-71
2023/09/05 07:35:11;;;;;;;;;;;22.90;41.60;;;;;;5102796;28;20292;-68
2023/09/05 07:37:38;;;;;;;;;;;22.70;40.50;;;;;;5092231;28;20287;-69
2023/09/05 07:40:06;;;;;;;;;;;22.50;41.60;;;;;;5108397;28;19927;-67
2023/09/05 07:42:33;;;;;;;;;;;22.40;40.10;;;;;;5108375;28;19919;-71
2023/09/05 07:45:01;;;;;;;;;;;22.30;40.00;;;;;;5109409;28;19949;-68
2023/09/05 07:47:27;;;;;;;;;;;22.20;40.40;;;;;;5097775;28;19928;-69
2023/09/05 07:49:54;;;;;;;;;;;22.20;40.70;;;;;;5101274;27;19931;-70
2023/09/05 07:52:21;;;;;;;;;;;22.10;41.30;;;;;;5100571;28;20003;-71
2023/09/05 07:54:47;;;;;;;;;;;22.00;40.90;;;;;;5104906;27;20357;-71
2023/09/05 07:57:17;;;;;;;;;;;21.90;42.20;;;;;;5100174;28;19916;-70
2023/09/05 07:59:44;;;;;;;;;;;21.80;42.00;;;;;;5098262;27;19918;-70
2023/09/05 08:02:11;;;;;;;;;;;21.70;41.70;;;;;;5103687;28;19908;-70
2023/09/05 08:04:38;;;;;;;;;;;21.60;42.50;;;;;;5093339;27;19952;-68
2023/09/05 08:07:07;;;;;;;;;;;21.60;42.80;;;;;;5096201;28;19908;-69
2023/09/05 08:09:34;;;;;;;;;;;21.40;43.10;;;;;;5074468;28;20405;-69
2023/09/05 08:12:01;;;;;;;;;;;21.40;43.20;;;;;;5105333;28;19919;-68
2023/09/05 08:14:28;;;;;;;;;;;21.30;43.20;;;;;;5093047;28;20290;-68
2023/09/05 08:16:55;;;;;;;;;;;21.20;43.70;;;;;;5096526;27;19950;-67
2023/09/05 08:19:23;;;;;;;;;;;21.20;44.30;;;;;;5099766;28;19961;-67
2023/09/05 08:21:49;;;;;;;;;;;21.10;44.10;;;;;;5096382;27;19912;-68
2023/09/05 08:24:16;;;;;;;;;;;21.10;44.50;;;;;;5092802;28;20368;-67
2023/09/05 08:26:42;;;;;;;;;;;21.00;45.00;;;;;;5102730;27;19919;-69
2023/09/05 08:29:09;;;;;;;;;;;21.00;45.20;;;;;;5097748;28;19924;-68
2023/09/05 08:31:36;;;;;;;;;;;20.90;45.20;;;;;;5104442;28;19973;-67
2023/09/05 08:34:03;;;;;;;;;;;20.80;45.30;;;;;;5092622;28;20383;-67
2023/09/05 08:36:30;;;;;;;;;;;20.80;45.40;;;;;;5102648;28;19912;-67
2023/09/05 08:38:56;;;;;;;;;;;20.70;45.80;;;;;;5101082;28;19919;-69
2023/09/05 08:41:23;;;;;;;;;;;20.60;45.70;;;;;;5095783;28;20001;-67
2023/09/05 08:43:51;;;;;;;;;;;20.50;45.90;;;;;;5092196;28;20283;-68
2023/09/05 08:46:18;;;;;;;;;;;20.50;45.80;;;;;;5099731;28;20003;-70
2023/09/05 08:48:45;;;;;;;;;;;20.50;46.20;;;;;;5102420;28;20338;-68
2023/09/05 08:51:13;;;;;;;;;;;20.40;46.30;;;;;;5102718;28;19915;-68
2023/09/05 08:53:48;;;;;;;;;;;20.30;46.30;;;;;;5092432;28;20219;-68
2023/09/05 08:56:15;;;;;;;;;;;20.20;46.40;;;;;;5102275;27;19930;-67
2023/09/05 08:58:42;;;;;;;;;;;20.10;46.90;;;;;;5105328;28;19916;-69
2023/09/05 09:01:10;;;;;;;;;;;20.10;47.00;;;;;;5107460;28;20368;-69
2023/09/05 09:03:37;;;;;;;;;;;20.00;47.10;;;;;;5094039;28;19908;-69
2023/09/05 09:06:04;;;;;;;;;;;20.00;47.40;;;;;;5105037;28;19930;-71
2023/09/05 09:08:43;;;;;;;;;;;19.90;47.20;;;;;;5104676;28;19920;-69
2023/09/05 09:11:10;;;;;;;;;;;19.80;47.40;;;;;;5103384;28;19938;-70
2023/09/05 09:13:38;;;;;;;;;;;19.80;48.00;;;;;;5112974;28;19908;-67
2023/09/05 09:16:05;;;;;;;;;;;19.70;47.30;;;;;;5106928;28;19912;-67
2023/09/05 09:18:33;;;;;;;;;;;19.70;47.60;;;;;;5110224;28;19934;-69
2023/09/05 09:21:03;;;;;;;;;;;19.70;47.90;;;;;;5112197;28;19956;-67
2023/09/05 09:23:33;;;;;;;;;;;19.60;47.70;;;;;;5112049;28;20261;-70
2023/09/05 09:26:00;;;;;;;;;;;19.60;47.90;;;;;;5103617;28;19916;-70
2023/09/05 09:28:36;;;;;;;;;;;19.60;48.00;;;;;;5094927;28;19921;-66
2023/09/05 09:31:08;;;;;;;;;;;19.50;48.50;;;;;;5105687;28;19939;-65
2023/09/05 09:33:35;;;;;;;;;;;19.50;48.10;;;;;;5092865;28;19968;-66
2023/09/05 09:36:01;;;;;;;;;;;19.40;48.30;;;;;;5095152;28;20392;-69
2023/09/05 09:38:31;;;;;;;;;;;19.30;48.50;;;;;;5098712;28;19916;-68
2023/09/05 09:41:01;;;;;;;;;;;19.30;49.00;;;;;;5091584;28;20344;-67
2023/09/05 09:43:28;;;;;;;;;;;19.10;48.80;;;;;;5095520;28;19919;-69
2023/09/05 09:45:57;;;;;;;;;;;19.10;49.30;;;;;;5091090;28;19994;-69
2023/09/05 09:48:26;;;;;;;;;;;19.00;49.40;;;;;;5091029;28;20435;-68
2023/09/05 09:50:54;;;;;;;;;;;18.80;49.60;;;;;;5100544;28;19915;-67
2023/09/05 09:53:27;;;;;;;;;;;18.80;50.20;;;;;;5093207;28;19908;-67
2023/09/05 09:55:54;;;;;;;;;;;18.70;49.80;;;;;;5091526;28;20000;-67
2023/09/05 09:58:22;;;;;;;;;;;18.70;49.80;;;;;;5091289;28;19915;-67
2023/09/05 10:00:51;;;;;;;;;;;18.60;49.80;;;;;;5091452;28;19908;-67
2023/09/05 10:03:18;;;;;;;;;;;18.60;50.00;;;;;;5092138;28;19919;-66
2023/09/05 10:05:46;;;;;;;;;;;18.60;50.30;;;;;;5091429;28;20273;-69
2023/09/05 10:08:13;;;;;;;;;;;18.50;50.50;;;;;;5092736;28;19969;-67
2023/09/05 10:10:40;;;;;;;;;;;18.50;50.70;;;;;;5091539;28;19924;-66
2023/09/05 10:13:08;;;;;;;;;;;18.40;51.40;;;;;;5095216;28;19915;-68
2023/09/05 10:15:36;;;;;;;;;;;18.40;51.40;;;;;;5092306;28;20361;-66
2023/09/05 10:18:03;;;;;;;;;;;18.30;52.00;;;;;;5093334;28;20524;-69
2023/09/05 10:20:31;;;;;;;;;;;18.30;51.80;;;;;;5093543;28;19912;-67
2023/09/05 10:22:58;;;;;;;;;;;18.30;52.10;;;;;;5093140;28;19911;-69
2023/09/05 10:25:25;;;;;;;;;;;18.20;52.00;;;;;;5095017;28;20380;-72
2023/09/05 10:27:52;;;;;;;;;;;18.10;52.60;;;;;;5095143;28;20406;-67
2023/09/05 10:30:20;;;;;;;;;;;18.10;52.70;;;;;;5094633;28;19920;-72
2023/09/05 10:32:48;;;;;;;;;;;18.10;53.90;;;;;;5094745;28;19915;-72
2023/09/05 10:35:19;;;;;;;;;;;18.00;53.10;;;;;;5094855;28;19950;-72
2023/09/05 10:37:56;;;;;;;;;;;18.00;53.20;;;;;;5094673;28;19916;-71
2023/09/05 10:40:33;;;;;;;;;;;17.90;53.60;;;;;;5094764;28;19912;-71
2023/09/05 10:43:01;;;;;;;;;;;17.80;53.90;;;;;;5094299;28;19956;-70
2023/09/05 10:45:28;;;;;;;;;;;17.80;54.30;;;;;;5094702;28;19912;-71
2023/09/05 10:47:58;;;;;;;;;;;17.80;54.80;;;;;;5097787;28;19920;-69
2023/09/05 10:50:25;;;;;;;;;;;17.70;55.30;;;;;;5094148;28;19916;-69
2023/09/05 10:53:13;;;;;;;;;;;17.60;55.70;;;;;;5095529;28;20382;-71
2023/09/05 10:55:44;;;;;;;;;;;17.60;55.90;;;;;;5094662;28;19939;-70
2023/09/05 10:58:29;;;;;;;;;;;17.60;56.00;;;;;;5096624;28;20260;-68
2023/09/05 11:01:00;;;;;;;;;;;17.60;56.20;;;;;;5082991;28;20002;-67
2023/09/05 11:03:38;;;;;;;;;;;17.50;56.90;;;;;;5097861;28;19927;-71
2023/09/05 11:06:12;;;;;;;;;;;17.40;57.20;;;;;;5096161;28;20265;-69
2023/09/05 11:08:39;;;;;;;;;;;17.40;57.30;;;;;;5075907;28;20012;-71
2023/09/05 11:11:06;;;;;;;;;;;17.40;57.80;;;;;;5094359;28;19944;-70
2023/09/05 11:13:34;;;;;;;;;;;17.40;58.10;;;;;;5098439;28;19919;-69
2023/09/05 11:16:01;;;;;;;;;;;17.40;58.30;;;;;;5113267;28;19918;-69
2023/09/05 11:18:28;;;;;;;;;;;17.30;59.10;;;;;;5093910;28;19913;-70
2023/09/05 11:20:55;;;;;;;;;;;17.20;60.30;;;;;;5094309;28;20432;-71
2023/09/05 11:23:25;;;;;;;;;;;17.20;59.80;;;;;;5093377;28;19920;-69
2023/09/05 11:25:55;;;;;;;;;;;17.10;61.10;;;;;;5092507;28;19957;-72
2023/09/05 11:28:25;;;;;;;;;;;17.00;60.10;;;;;;5094302;28;19967;-70
2023/09/05 11:30:57;;;;;;;;;;;17.00;60.40;;;;;;5108330;28;20312;-71
2023/09/05 11:33:27;;;;;;;;;;;16.90;60.90;;;;;;5103125;28;19957;-72
2023/09/05 11:35:54;;;;;;;;;;;16.80;61.20;;;;;;5093994;28;20303;-71
2023/09/05 11:38:21;;;;;;;;;;;16.80;60.80;;;;;;5093227;28;20360;-73
2023/09/05 11:40:51;;;;;;;;;;;16.80;61.20;;;;;;5093498;28;19920;-72
2023/09/05 11:43:18;;;;;;;;;;;16.80;61.80;;;;;;5093313;28;19916;-73
2023/09/05 11:45:46;;;;;;;;;;;16.70;62.40;;;;;;5093656;28;20004;-68
2023/09/05 11:48:17;;;;;;;;;;;16.70;62.40;;;;;;5093651;28;19927;-69
2023/09/05 11:50:44;;;;;;;;;;;16.70;63.10;;;;;;5098896;28;19908;-65
2023/09/05 11:53:14;;;;;;;;;;;16.60;63.10;;;;;;5093644;28;19961;-68
2023/09/05 11:55:41;;;;;;;;;;;16.60;63.90;;;;;;5107542;28;20253;-67
2023/09/05 11:58:09;;;;;;;;;;;16.50;63.60;;;;;;5113713;28;19912;-68
2023/09/05 12:00:43;;;;;;;;;;;16.40;63.80;;;;;;5095063;28;19915;-65
2023/09/05 12:03:09;;;;;;;;;;;16.40;63.80;;;;;;5113796;28;19964;-68
2023/09/05 12:05:37;;;;;;;;;;;16.30;64.20;;;;;;5113982;28;19915;-66
2023/09/05 12:08:07;;;;;;;;;;;16.20;64.20;;;;;;5092734;28;19924;-68
2023/09/05 12:10:51;;;;;;;;;;;16.20;65.00;;;;;;5113674;28;20329;-66
2023/09/05 12:13:18;;;;;;;;;;;16.10;64.60;;;;;;5093217;28;20429;-66
2023/09/05 12:15:46;;;;;;;;;;;16.00;64.30;;;;;;5112413;28;19953;-66
2023/09/05 12:18:24;;;;;;;;;;;16.10;65.70;;;;;;5093472;28;20283;-69
2023/09/05 12:20:57;;;;;;;;;;;16.10;66.00;;;;;;5112456;28;20241;-68
2023/09/05 12:23:24;;;;;;;;;;;16.10;66.40;;;;;;5113422;28;19930;-68
2023/09/05 12:25:54;;;;;;;;;;;16.00;65.70;;;;;;5114032;28;20356;-69
2023/09/05 12:28:22;;;;;;;;;;;16.00;66.20;;;;;;5093475;28;19963;-68
2023/09/05 12:30:50;;;;;;;;;;;15.90;66.50;;;;;;5093811;28;20428;-69
2023/09/05 12:33:17;;;;;;;;;;;15.80;66.40;;;;;;5095295;28;19998;-69
2023/09/05 12:35:44;;;;;;;;;;;15.80;66.70;;;;;;5113450;28;19907;-67
2023/09/05 12:38:11;;;;;;;;;;;15.80;67.40;;;;;;5107738;28;20437;-70
2023/09/05 12:40:37;;;;;;;;;;;15.70;67.10;;;;;;5094008;28;19912;-65
2023/09/05 12:43:04;;;;;;;;;;;15.70;67.10;;;;;;5113393;28;20037;-70
2023/09/05 12:45:32;;;;;;;;;;;15.60;67.90;;;;;;5113698;28;20107;-68
2023/09/05 12:47:59;;;;;;;;;;;15.60;68.30;;;;;;5113190;28;20504;-66
2023/09/05 12:50:30;;;;;;;;;;;15.60;69.00;;;;;;5109843;28;19916;-66
2023/09/05 12:52:58;;;;;;;;;;;15.50;69.60;;;;;;5111489;28;19912;-65
2023/09/05 12:55:25;;;;;;;;;;;15.50;70.20;;;;;;5113828;28;19907;-68
2023/09/05 12:57:53;;;;;;;;;;;15.40;70.50;;;;;;5112813;28;20356;-65
2023/09/05 13:00:20;;;;;;;;;;;15.30;69.60;;;;;;5113661;28;19908;-66
2023/09/05 13:02:47;;;;;;;;;;;15.20;69.80;;;;;;5101681;28;19930;-68
2023/09/05 13:05:13;;;;;;;;;;;15.30;70.80;;;;;;5097489;28;20357;-68
2023/09/05 13:07:40;;;;;;;;;;;15.20;70.90;;;;;;5096163;28;19912;-67
2023/09/05 13:10:07;;;;;;;;;;;15.20;70.10;;;;;;5093170;28;19973;-68
2023/09/05 13:12:34;;;;;;;;;;;15.20;69.10;;;;;;5108123;28;19915;-69
2023/09/05 13:15:01;;;;;;;;;;;15.20;69.40;;;;;;5113151;28;19916;-66
2023/09/05 13:17:28;;;;;;;;;;;15.20;69.20;;;;;;5095002;28;20039;-67
2023/09/05 13:19:55;;;;;;;;;;;15.30;70.30;;;;;;5113269;28;19908;-67
2023/09/05 13:22:21;;;;;;;;;;;15.20;70.00;;;;;;5099678;28;20352;-66
2023/09/05 13:24:48;;;;;;;;;;;15.20;69.80;;;;;;5097935;28;20007;-67
2023/09/05 13:27:15;;;;;;;;;;;15.20;69.90;;;;;;5113061;28;19939;-67
2023/09/05 13:29:41;;;;;;;;;;;15.20;70.30;;;;;;5111056;28;19924;-68
2023/09/05 13:32:09;;;;;;;;;;;15.20;70.80;;;;;;5102529;28;19959;-68
2023/09/05 13:34:37;;;;;;;;;;;15.20;70.90;;;;;;5113115;28;19969;-66
2023/09/05 13:37:04;;;;;;;;;;;15.20;71.20;;;;;;5113313;28;19915;-66
2023/09/05 13:39:31;;;;;;;;;;;15.10;71.80;;;;;;5113366;28;19976;-67
2023/09/05 13:42:01;;;;;;;;;;;15.10;72.70;;;;;;5103626;28;20277;-65
2023/09/05 13:44:28;;;;;;;;;;;15.00;72.70;;;;;;5093447;28;19949;-66
2023/09/05 13:46:54;;;;;;;;;;;15.00;73.20;;;;;;5092568;28;19920;-66
2023/09/05 13:49:21;;;;;;;;;;;14.90;74.10;;;;;;5094879;28;19927;-66
2023/09/05 13:51:48;;;;;;;;;;;14.90;73.70;;;;;;5108787;28;19912;-66
2023/09/05 13:54:15;;;;;;;;;;;14.80;73.40;;;;;;5096952;28;20368;-67
2023/09/05 13:56:41;;;;;;;;;;;14.80;72.80;;;;;;5107854;28;19916;-67
2023/09/05 13:59:08;;;;;;;;;;;14.80;72.90;;;;;;5117174;28;19908;-68
2023/09/05 14:01:34;;;;;;;;;;;14.70;73.30;;;;;;5110863;28;19912;-71
2023/09/05 14:04:01;;;;;;;;;;;14.70;72.60;;;;;;5096915;28;19918;-67
2023/09/05 14:06:28;;;;;;;;;;;14.70;73.50;;;;;;5096522;28;19952;-66
2023/09/05 14:08:54;;;;;;;;;;;14.70;73.70;;;;;;5096613;28;20002;-67
2023/09/05 14:11:21;;;;;;;;;;;14.70;74.10;;;;;;5107999;28;19966;-67
2023/09/05 14:13:48;;;;;;;;;;;14.70;74.80;;;;;;5116723;28;20364;-65
2023/09/05 14:16:19;;;;;;;;;;;14.60;75.10;;;;;;5116793;28;19908;-68
2023/09/05 14:18:46;;;;;;;;;;;14.60;76.10;;;;;;5114972;28;19911;-66
2023/09/05 14:21:13;;;;;;;;;;;14.60;75.90;;;;;;5109957;28;19958;-68